Time;durP1;ratioP1;P1;durP2;ratioP2;P2;SDS_P1;SDS_P2;PMS_P1;PMS_P2;Temp;Humidity;BMP_temperature;BMP_pressure;BME280_temperature;BME280_humidity;BME280_pressure;Samples;Min_cycle;Max_cycle;Signal;HPM_P1;HPM_P2
2021/04/18 00:00:55;;;;;;;7.77;6.67;;;;;;;2.99;98.07;98356.25;5062318;28;20516;-71
2021/04/18 00:03:22;;;;;;;8.03;7.27;;;;;;;2.75;99.59;98347.38;5062173;28;20233;-71
2021/04/18 00:05:50;;;;;;;7.60;6.60;;;;;;;2.62;100.00;98348.31;5059351;28;20209;-71
2021/04/18 00:08:17;;;;;;;6.47;5.93;;;;;;;2.66;100.00;98347.16;5065480;28;20209;-71
2021/04/18 00:10:45;;;;;;;8.03;7.37;;;;;;;2.79;99.92;98347.16;5062537;28;20497;-72
2021/04/18 00:13:14;;;;;;;7.07;6.40;;;;;;;2.92;98.41;98344.53;5059824;28;20210;-72
2021/04/18 00:15:43;;;;;;;9.53;8.60;;;;;;;2.85;98.29;98344.13;5059399;28;20207;-72
2021/04/18 00:18:10;;;;;;;7.27;6.53;;;;;;;2.72;98.83;98337.13;5060436;28;20280;-72
2021/04/18 00:20:38;;;;;;;8.17;6.40;;;;;;;2.67;99.66;98335.75;5056678;28;20495;-72
2021/04/18 00:23:05;;;;;;;6.60;6.10;;;;;;;2.64;100.00;98328.94;5060631;28;20394;-71
2021/04/18 00:25:33;;;;;;;6.87;6.23;;;;;;;2.96;97.81;98328.50;5059799;28;20213;-72
2021/04/18 00:28:00;;;;;;;8.03;6.87;;;;;;;3.11;95.43;98326.56;5060712;28;20203;-72
2021/04/18 00:30:27;;;;;;;6.43;5.90;;;;;;;3.03;96.40;98328.91;5059509;28;20231;-71
2021/04/18 00:33:00;;;;;;;6.37;5.87;;;;;;;3.06;95.70;98320.84;5059387;28;20207;-71
2021/04/18 00:35:28;;;;;;;7.23;6.63;;;;;;;2.83;96.85;98320.66;5054839;28;20203;-72
2021/04/18 00:37:55;;;;;;;7.97;7.27;;;;;;;2.84;98.47;98319.72;5060772;28;20314;-71
2021/04/18 00:40:24;;;;;;;7.30;6.70;;;;;;;2.72;98.31;98317.94;5059669;28;20611;-71
2021/04/18 00:42:51;;;;;;;6.70;6.10;;;;;;;2.82;97.49;98318.16;5060780;28;20310;-72
2021/04/18 00:45:20;;;;;;;7.93;7.07;;;;;;;2.91;97.68;98319.31;5058579;28;20214;-71
2021/04/18 00:47:49;;;;;;;8.43;7.47;;;;;;;2.75;98.43;98321.19;5057453;28;20322;-71
2021/04/18 00:50:23;;;;;;;7.47;6.77;;;;;;;2.86;99.12;98320.47;5058050;28;20313;-71
2021/04/18 00:52:51;;;;;;;7.10;6.50;;;;;;;2.75;98.53;98315.97;5059420;28;20756;-71
2021/04/18 00:55:19;;;;;;;8.33;7.63;;;;;;;2.71;99.81;98316.28;5058702;28;20213;-72
2021/04/18 00:57:46;;;;;;;7.57;7.00;;;;;;;2.95;99.29;98318.13;5059895;28;20230;-72
2021/04/18 01:00:14;;;;;;;6.07;5.67;;;;;;;2.87;99.07;98314.28;5058551;28;20752;-71
2021/04/18 01:02:41;;;;;;;7.70;7.00;;;;;;;2.89;98.62;98320.25;5061658;28;20640;-72
2021/04/18 01:05:09;;;;;;;6.73;6.23;;;;;;;3.01;97.36;98315.09;5053647;28;20305;-72
2021/04/18 01:07:37;;;;;;;6.93;6.33;;;;;;;2.95;98.81;98313.72;5058629;28;20200;-72
2021/04/18 01:10:07;;;;;;;7.40;6.60;;;;;;;3.03;98.09;98319.28;5060180;28;20219;-71
2021/04/18 01:12:34;;;;;;;6.97;6.27;;;;;;;2.93;98.35;98306.94;5058836;28;20221;-72
2021/04/18 01:15:02;;;;;;;7.33;6.63;;;;;;;2.96;98.68;98312.78;5061646;28;20214;-72
2021/04/18 01:17:29;;;;;;;6.93;6.43;;;;;;;3.00;97.40;98311.63;5057068;28;20313;-71
2021/04/18 01:19:56;;;;;;;7.70;6.67;;;;;;;2.96;98.29;98309.34;5060112;28;20210;-71
2021/04/18 01:22:24;;;;;;;7.63;6.93;;;;;;;2.92;98.43;98310.50;5058368;28;20251;-71
2021/04/18 01:24:51;;;;;;;9.60;7.50;;;;;;;2.94;97.71;98304.19;5060140;28;20209;-71
2021/04/18 01:27:20;;;;;;;7.90;7.20;;;;;;;2.89;97.68;98307.16;5060341;28;20851;-71
2021/04/18 01:29:47;;;;;;;7.33;6.57;;;;;;;2.92;98.84;98302.66;5058777;28;20210;-70
2021/04/18 01:32:15;;;;;;;7.20;6.60;;;;;;;2.87;98.83;98301.19;5061818;28;20194;-71
2021/04/18 01:34:44;;;;;;;8.17;7.13;;;;;;;2.79;99.60;98293.00;5057838;28;20213;-71
2021/04/18 01:37:12;;;;;;;7.73;7.07;;;;;;;2.68;100.00;98301.63;5057956;28;20228;-71
2021/04/18 01:39:40;;;;;;;7.30;6.73;;;;;;;2.75;100.00;98294.19;5054664;28;20356;-71
2021/04/18 01:42:08;;;;;;;7.77;7.13;;;;;;;3.00;98.87;98282.81;5055928;28;20230;-71
2021/04/18 01:44:36;;;;;;;7.70;7.00;;;;;;;3.07;97.03;98293.69;5058539;28;20203;-71
2021/04/18 01:47:03;;;;;;;7.13;6.50;;;;;;;2.99;97.78;98296.84;5060014;28;20199;-72
2021/04/18 01:49:30;;;;;;;7.90;7.23;;;;;;;2.84;98.33;98298.78;5058993;28;20207;-71
2021/04/18 01:51:58;;;;;;;8.23;7.47;;;;;;;2.74;99.09;98293.34;5060301;28;20939;-72
2021/04/18 01:54:25;;;;;;;7.07;6.47;;;;;;;2.89;99.63;98293.22;5059494;28;20252;-72
2021/04/18 01:56:53;;;;;;;7.90;7.10;;;;;;;2.90;98.53;98297.50;5060847;28;20199;-71
2021/04/18 01:59:20;;;;;;;7.67;7.07;;;;;;;2.92;98.09;98298.22;5054833;28;20207;-71
2021/04/18 02:01:48;;;;;;;7.60;6.93;;;;;;;2.92;99.11;98295.63;5057202;28;20226;-71
2021/04/18 02:04:21;;;;;;;7.50;6.87;;;;;;;2.93;98.28;98302.53;5059322;28;20633;-71
2021/04/18 02:06:48;;;;;;;7.30;6.80;;;;;;;2.99;98.59;98289.00;5059737;28;20605;-71
2021/04/18 02:09:15;;;;;;;8.30;7.60;;;;;;;2.95;98.35;98297.19;5059633;28;20238;-72
2021/04/18 02:11:43;;;;;;;8.60;7.80;;;;;;;2.80;99.17;98299.91;5062486;28;20799;-71
2021/04/18 02:14:11;;;;;;;8.50;7.70;;;;;;;2.99;98.69;98291.63;5062132;28;20226;-71
2021/04/18 02:16:38;;;;;;;8.73;7.40;;;;;;;2.89;98.94;98291.44;5063631;28;20332;-72
2021/04/18 02:19:06;;;;;;;9.10;8.30;;;;;;;2.74;100.00;98287.28;5062245;28;20242;-71
2021/04/18 02:21:33;;;;;;;8.03;7.37;;;;;;;2.76;100.00;98288.00;5062636;28;20315;-71
2021/04/18 02:24:00;;;;;;;7.73;7.13;;;;;;;2.84;100.00;98293.56;5063452;28;20302;-72
2021/04/18 02:26:27;;;;;;;7.67;7.07;;;;;;;2.99;98.64;98286.38;5064932;28;20229;-72
2021/04/18 02:28:54;;;;;;;7.87;7.23;;;;;;;2.96;97.38;98283.97;5058863;28;20240;-71
2021/04/18 02:31:22;;;;;;;7.23;6.63;;;;;;;3.02;97.45;98282.72;5064628;28;20268;-71
2021/04/18 02:33:50;;;;;;;8.90;6.93;;;;;;;2.87;97.63;98290.72;5063067;28;20489;-72
2021/04/18 02:36:17;;;;;;;8.70;7.90;;;;;;;2.85;98.99;98291.75;5059933;28;20276;-71
2021/04/18 02:38:44;;;;;;;8.50;7.80;;;;;;;2.93;98.14;98280.75;5057668;28;20230;-71
2021/04/18 02:41:11;;;;;;;8.53;7.83;;;;;;;2.94;98.67;98283.25;5061338;28;20227;-71
2021/04/18 02:43:38;;;;;;;7.90;7.10;;;;;;;2.87;99.20;98282.88;5062201;28;20207;-71
2021/04/18 02:46:07;;;;;;;8.20;7.50;;;;;;;2.69;99.66;98274.53;5061909;28;20202;-71
2021/04/18 02:48:35;;;;;;;9.97;8.90;;;;;;;2.58;100.00;98279.66;5061882;28;20226;-72
2021/04/18 02:51:02;;;;;;;8.33;7.53;;;;;;;2.56;100.00;98292.84;5059578;28;20225;-72
2021/04/18 02:53:29;;;;;;;8.83;7.80;;;;;;;2.61;100.00;98284.66;5062380;28;20229;-71
2021/04/18 02:55:56;;;;;;;8.13;7.43;;;;;;;2.65;100.00;98283.53;5062755;28;20195;-72
2021/04/18 02:58:24;;;;;;;8.67;7.70;;;;;;;2.62;100.00;98283.72;5061907;28;20222;-71
2021/04/18 03:00:51;;;;;;;8.07;7.47;;;;;;;2.48;100.00;98283.84;5061683;28;20737;-71
2021/04/18 03:03:18;;;;;;;8.50;7.70;;;;;;;2.62;100.00;98285.50;5062307;28;20215;-72
2021/04/18 03:05:49;;;;;;;9.67;7.93;;;;;;;2.79;100.00;98276.50;5057225;28;20206;-72
2021/04/18 03:08:16;;;;;;;8.07;7.23;;;;;;;2.73;99.70;98272.50;5058473;28;20312;-71
2021/04/18 03:10:43;;;;;;;7.63;7.07;;;;;;;2.71;98.73;98266.53;5058461;28;20655;-71
2021/04/18 03:13:10;;;;;;;8.53;7.67;;;;;;;2.57;100.00;98270.13;5061638;28;20250;-72
2021/04/18 03:15:37;;;;;;;8.10;7.50;;;;;;;2.51;100.00;98273.16;5060975;28;20478;-72
2021/04/18 03:18:05;;;;;;;8.77;8.00;;;;;;;2.40;100.00;98266.91;5063461;28;20226;-72
2021/04/18 03:20:33;;;;;;;7.80;7.27;;;;;;;2.49;100.00;98272.44;5061143;28;20233;-72
2021/04/18 03:23:01;;;;;;;7.60;7.00;;;;;;;2.55;100.00;98270.25;5061865;28;21005;-70
2021/04/18 03:25:28;;;;;;;8.50;7.60;;;;;;;2.59;100.00;98269.09;5058817;28;20203;-70
2021/04/18 03:27:55;;;;;;;8.40;7.70;;;;;;;2.65;100.00;98266.97;5062560;28;20294;-70
2021/04/18 03:30:23;;;;;;;8.30;7.47;;;;;;;2.89;99.93;98267.88;5061137;28;20245;-72
2021/04/18 03:32:50;;;;;;;8.37;7.60;;;;;;;2.78;100.00;98264.34;5055575;28;20198;-72
2021/04/18 03:35:17;;;;;;;7.90;7.30;;;;;;;2.59;100.00;98270.84;5057562;28;20202;-72
2021/04/18 03:37:44;;;;;;;8.07;7.30;;;;;;;2.70;100.00;98265.72;5060755;28;20261;-71
2021/04/18 03:40:13;;;;;;;7.73;7.03;;;;;;;2.69;100.00;98269.28;5060510;28;20223;-72
2021/04/18 03:42:40;;;;;;;7.90;7.30;;;;;;;2.57;100.00;98265.75;5057846;28;20203;-72
2021/04/18 03:45:08;;;;;;;7.43;6.83;;;;;;;2.57;100.00;98270.97;5057780;28;20775;-72
2021/04/18 03:47:35;;;;;;;8.20;7.50;;;;;;;2.70;100.00;98276.19;5062956;28;20199;-72
2021/04/18 03:50:04;;;;;;;7.27;6.70;;;;;;;2.65;100.00;98265.22;5057124;28;20750;-72
2021/04/18 03:52:31;;;;;;;8.40;7.63;;;;;;;2.50;100.00;98267.13;5061496;28;20207;-71
2021/04/18 03:54:58;;;;;;;7.43;6.83;;;;;;;2.78;100.00;98257.31;5056277;28;20456;-72
2021/04/18 03:57:26;;;;;;;8.33;7.53;;;;;;;2.65;100.00;98261.75;5056134;28;20294;-72
2021/04/18 03:59:53;;;;;;;7.73;7.13;;;;;;;2.59;100.00;98263.84;5059534;28;20210;-72
2021/04/18 04:02:20;;;;;;;8.80;7.63;;;;;;;2.66;100.00;98266.03;5058385;28;20207;-72
2021/04/18 04:04:47;;;;;;;7.30;6.80;;;;;;;2.68;100.00;98264.16;5058726;28;20203;-71
2021/04/18 04:07:15;;;;;;;8.37;7.60;;;;;;;2.65;100.00;98262.59;5061886;28;20191;-72
2021/04/18 04:09:42;;;;;;;7.67;7.07;;;;;;;2.54;100.00;98263.34;5057176;28;20226;-72
2021/04/18 04:12:10;;;;;;;8.13;7.43;;;;;;;2.61;100.00;98266.34;5057579;28;20203;-72
2021/04/18 04:14:38;;;;;;;7.27;6.77;;;;;;;2.66;100.00;98269.50;5060411;28;20207;-73
2021/04/18 04:17:05;;;;;;;7.30;6.60;;;;;;;2.55;100.00;98264.16;5060819;28;20213;-72
2021/04/18 04:19:33;;;;;;;7.63;7.07;;;;;;;2.44;100.00;98268.38;5061173;28;20936;-73
2021/04/18 04:22:00;;;;;;;7.70;7.20;;;;;;;2.45;100.00;98267.41;5062401;28;20226;-73
2021/04/18 04:24:27;;;;;;;8.07;7.47;;;;;;;2.43;100.00;98271.06;5059524;28;20210;-72
2021/04/18 04:26:54;;;;;;;8.67;7.83;;;;;;;2.63;100.00;98274.09;5060763;28;20289;-73
2021/04/18 04:29:22;;;;;;;8.40;7.77;;;;;;;2.65;100.00;98272.22;5059560;28;20295;-73
2021/04/18 04:31:50;;;;;;;8.60;7.83;;;;;;;2.68;100.00;98272.00;5061754;28;20394;-73
2021/04/18 04:34:17;;;;;;;8.73;7.93;;;;;;;2.55;100.00;98267.63;5061988;28;20215;-72
2021/04/18 04:36:44;;;;;;;8.90;8.20;;;;;;;2.58;100.00;98271.78;5061415;28;20199;-73
2021/04/18 04:39:12;;;;;;;8.90;8.20;;;;;;;2.58;100.00;98275.25;5058955;28;20572;-73
2021/04/18 04:41:39;;;;;;;9.37;8.37;;;;;;;2.73;100.00;98275.13;5059193;28;20705;-73
2021/04/18 04:44:08;;;;;;;8.60;7.90;;;;;;;2.57;100.00;98276.22;5057137;28;20206;-73
2021/04/18 04:46:35;;;;;;;9.23;8.43;;;;;;;2.59;100.00;98273.47;5061688;28;20755;-73
2021/04/18 04:49:04;;;;;;;8.80;7.97;;;;;;;2.65;100.00;98278.31;5060480;28;20222;-74
2021/04/18 04:51:31;;;;;;;7.53;6.93;;;;;;;2.60;100.00;98286.47;5055266;28;20255;-73
2021/04/18 04:53:58;;;;;;;8.00;7.40;;;;;;;2.64;100.00;98287.06;5060763;28;20305;-73
2021/04/18 04:56:25;;;;;;;7.67;7.07;;;;;;;2.81;100.00;98288.50;5061054;28;20191;-73
2021/04/18 04:58:55;;;;;;;9.03;8.37;;;;;;;2.82;100.00;98284.13;5059360;28;20345;-72
2021/04/18 05:01:22;;;;;;;8.40;7.80;;;;;;;2.94;100.00;98282.44;5057471;28;20773;-72
2021/04/18 05:03:49;;;;;;;8.53;7.93;;;;;;;2.79;100.00;98286.97;5061766;28;20657;-72
2021/04/18 05:06:18;;;;;;;8.77;8.07;;;;;;;3.04;100.00;98293.91;5060651;28;20203;-73
2021/04/18 05:08:45;;;;;;;9.67;8.87;;;;;;;3.03;100.00;98287.00;5059208;28;20213;-73
2021/04/18 05:11:12;;;;;;;9.27;8.57;;;;;;;2.97;100.00;98282.22;5060935;28;20214;-73
2021/04/18 05:13:40;;;;;;;9.00;8.30;;;;;;;2.86;100.00;98285.56;5060622;28;20705;-73
2021/04/18 05:16:08;;;;;;;9.77;8.80;;;;;;;2.93;100.00;98289.44;5059659;28;20199;-73
2021/04/18 05:18:35;;;;;;;11.90;9.60;;;;;;;2.98;100.00;98279.47;5057490;28;20272;-72
2021/04/18 05:21:02;;;;;;;10.23;9.33;;;;;;;2.98;100.00;98283.88;5060050;28;20631;-73
2021/04/18 05:23:30;;;;;;;9.90;8.93;;;;;;;3.00;100.00;98285.44;5061354;28;20222;-72
2021/04/18 05:25:58;;;;;;;9.70;8.80;;;;;;;3.03;100.00;98281.78;5058986;28;20302;-73
2021/04/18 05:28:25;;;;;;;9.63;8.93;;;;;;;3.44;98.80;98283.19;5059055;28;20567;-73
2021/04/18 05:30:55;;;;;;;10.17;9.27;;;;;;;3.24;100.00;98284.63;5060567;28;20235;-72
2021/04/18 05:33:22;;;;;;;10.17;9.30;;;;;;;3.28;100.00;98291.31;5057617;28;20217;-73
2021/04/18 05:35:49;;;;;;;10.03;9.13;;;;;;;3.38;100.00;98291.50;5057195;28;20211;-72
2021/04/18 05:38:16;;;;;;;9.87;8.97;;;;;;;3.44;99.20;98296.28;5059607;28;20219;-71
2021/04/18 05:40:46;;;;;;;9.90;8.93;;;;;;;3.41;99.83;98291.28;5052509;28;20223;-71
2021/04/18 05:43:13;;;;;;;9.17;8.47;;;;;;;3.59;98.88;98283.00;5060431;28;20310;-72
2021/04/18 05:45:41;;;;;;;10.63;9.73;;;;;;;3.76;98.67;98289.63;5060956;28;20308;-72
2021/04/18 05:48:08;;;;;;;10.20;9.30;;;;;;;3.73;97.42;98287.25;5061776;28;20310;-71
2021/04/18 05:50:36;;;;;;;10.77;9.83;;;;;;;3.76;96.82;98294.88;5061874;28;20613;-71
2021/04/18 05:53:03;;;;;;;10.83;9.90;;;;;;;3.70;97.69;98288.31;5062363;28;20320;-71
2021/04/18 05:55:30;;;;;;;10.57;9.57;;;;;;;3.51;98.17;98287.97;5062201;28;20306;-71
2021/04/18 05:57:58;;;;;;;10.27;9.47;;;;;;;3.68;98.97;98294.63;5062170;28;20573;-72
2021/04/18 06:00:25;;;;;;;22.47;20.83;;;;;;;3.61;98.56;98286.38;5064009;28;20309;-72
2021/04/18 06:02:55;;;;;;;11.43;10.47;;;;;;;3.89;99.40;98290.41;5059405;28;20207;-72
2021/04/18 06:05:23;;;;;;;11.90;11.00;;;;;;;3.75;97.49;98287.97;5063254;28;20230;-71
2021/04/18 06:07:50;;;;;;;11.13;10.23;;;;;;;3.89;97.04;98289.56;5062882;28;20583;-71
2021/04/18 06:10:18;;;;;;;11.50;10.53;;;;;;;3.89;95.20;98294.81;5063926;28;20714;-73
2021/04/18 06:12:45;;;;;;;11.80;10.73;;;;;;;3.89;95.45;98294.81;5064738;28;20206;-72
2021/04/18 06:15:13;;;;;;;11.43;10.53;;;;;;;3.83;96.52;98295.28;5061883;28;20233;-72
2021/04/18 06:17:41;;;;;;;12.77;11.60;;;;;;;3.90;95.88;98292.09;5063124;28;20217;-72
2021/04/18 06:20:09;;;;;;;10.97;10.17;;;;;;;3.97;97.03;98300.31;5064952;28;20227;-72
2021/04/18 06:22:36;;;;;;;11.53;10.43;;;;;;;4.05;95.31;98297.13;5059900;28;20199;-72
2021/04/18 06:25:04;;;;;;;14.33;13.10;;;;;;;4.20;92.90;98298.63;5064111;28;20298;-72
2021/04/18 06:27:31;;;;;;;12.27;11.17;;;;;;;4.23;94.31;98297.53;5064302;28;20231;-71
2021/04/18 06:29:59;;;;;;;23.57;18.50;;;;;;;4.32;93.94;98299.44;5065507;28;20885;-72
2021/04/18 06:32:27;;;;;;;82.13;50.17;;;;;;;4.39;92.79;98299.81;5061692;28;20213;-72
2021/04/18 06:35:00;;;;;;;16.07;14.67;;;;;;;4.20;92.48;98292.50;5062842;28;20207;-72
2021/04/18 06:37:27;;;;;;;11.10;10.23;;;;;;;4.03;93.86;98289.38;5063212;28;20237;-72
2021/04/18 06:39:54;;;;;;;34.77;31.07;;;;;;;4.27;92.80;98298.97;5061141;28;20222;-72
2021/04/18 06:42:23;;;;;;;13.40;12.20;;;;;;;4.51;90.43;98286.69;5063289;28;20261;-71
2021/04/18 06:44:51;;;;;;;10.60;9.73;;;;;;;4.80;88.69;98287.09;5061390;28;20203;-71
2021/04/18 06:47:18;;;;;;;11.87;10.90;;;;;;;4.51;91.28;98287.56;5061786;28;20725;-71
2021/04/18 06:49:48;;;;;;;11.70;10.50;;;;;;;4.81;90.34;98291.38;5062867;28;20685;-71
2021/04/18 06:52:15;;;;;;;11.53;10.63;;;;;;;5.05;87.85;98282.50;5063382;28;20388;-71
2021/04/18 06:54:42;;;;;;;11.47;10.33;;;;;;;4.89;87.45;98294.25;5061746;28;20781;-71
2021/04/18 06:57:09;;;;;;;13.00;11.97;;;;;;;4.98;88.03;98294.47;5061782;28;20206;-71
2021/04/18 06:59:37;;;;;;;11.33;10.27;;;;;;;5.04;87.74;98294.81;5059007;28;20630;-71
2021/04/18 07:02:05;;;;;;;12.57;11.37;;;;;;;5.18;85.37;98291.09;5063253;28;20199;-73
2021/04/18 07:04:34;;;;;;;11.30;10.30;;;;;;;5.43;82.87;98293.56;5063393;28;20918;-70
2021/04/18 07:07:02;;;;;;;12.13;11.03;;;;;;;5.24;82.79;98294.19;5058750;28;20339;-72
2021/04/18 07:09:30;;;;;;;12.70;10.80;;;;;;;5.54;81.81;98290.06;5059293;28;20306;-70
2021/04/18 07:11:59;;;;;;;11.53;10.53;;;;;;;5.33;83.16;98289.03;5064523;28;20738;-70
2021/04/18 07:14:28;;;;;;;11.53;10.53;;;;;;;5.83;81.24;98289.44;5063243;28;20681;-70
2021/04/18 07:17:07;;;;;;;12.30;10.90;;;;;;;5.98;80.08;98292.59;5063214;28;21164;-71
2021/04/18 07:19:36;;;;;;;12.37;11.10;;;;;;;5.63;81.59;98299.81;5062939;28;20234;-70
2021/04/18 07:22:05;;;;;;;12.10;11.03;;;;;;;5.67;81.63;98295.13;5060958;28;20827;-70
2021/04/18 07:24:33;;;;;;;12.40;11.37;;;;;;;5.90;81.53;98288.81;5057116;28;20231;-72
2021/04/18 07:27:02;;;;;;;12.00;11.00;;;;;;;5.73;80.66;98289.41;5054180;28;20214;-71
2021/04/18 07:29:31;;;;;;;11.20;10.30;;;;;;;5.93;80.14;98293.84;5062236;28;20606;-72
2021/04/18 07:31:59;;;;;;;11.87;10.70;;;;;;;6.27;77.77;98284.97;5064967;28;20227;-72
2021/04/18 07:34:34;;;;;;;13.30;12.20;;;;;;;5.92;79.26;98286.09;5061555;28;20430;-71
2021/04/18 07:37:13;;;;;;;12.53;11.43;;;;;;;6.06;80.08;98283.16;5060719;28;20573;-71
2021/04/18 07:39:44;;;;;;;12.00;11.03;;;;;;;6.12;78.40;98279.19;5061074;28;20465;-69
2021/04/18 07:42:33;;;;;;;12.97;11.37;;;;;;;6.20;78.59;98276.75;5060249;28;20206;-69
2021/04/18 07:45:03;;;;;;;12.87;11.77;;;;;;;6.21;78.56;98280.19;5061568;28;20223;-70
2021/04/18 07:47:34;;;;;;;13.67;12.33;;;;;;;6.40;77.84;98278.66;5059108;28;20199;-69
2021/04/18 07:50:03;;;;;;;12.40;11.30;;;;;;;6.85;75.72;98275.66;5061454;28;20662;-70
2021/04/18 07:52:32;;;;;;;12.83;11.53;;;;;;;6.46;78.02;98271.06;5062637;28;20295;-70
2021/04/18 07:55:00;;;;;;;13.83;12.43;;;;;;;7.00;76.71;98273.50;5061629;28;20211;-71
2021/04/18 07:57:28;;;;;;;13.30;12.17;;;;;;;7.26;74.12;98275.66;5060100;28;20214;-71
2021/04/18 07:59:55;;;;;;;12.83;11.83;;;;;;;7.29;73.54;98277.16;5058280;28;20690;-70
2021/04/18 08:02:24;;;;;;;15.90;14.57;;;;;;;7.38;71.45;98285.09;5058760;28;20940;-70
2021/04/18 08:04:55;;;;;;;17.30;15.60;;;;;;;7.70;70.15;98279.72;5061094;28;20431;-69
2021/04/18 08:07:22;;;;;;;17.27;15.63;;;;;;;8.14;68.02;98277.44;5061529;28;20598;-70
2021/04/18 08:10:23;;;;;;;17.13;15.60;;;;;;;8.28;66.84;98276.19;5063055;28;20215;-70
2021/04/18 08:13:12;;;;;;;16.90;15.10;;;;;;;8.29;66.84;98277.00;5061938;28;20195;-70
2021/04/18 08:15:41;;;;;;;17.03;15.20;;;;;;;8.38;65.49;98274.34;5052635;28;20451;-70
2021/04/18 08:18:10;;;;;;;18.43;16.73;;;;;;;8.20;64.21;98271.59;5058138;28;20203;-69
2021/04/18 08:20:40;;;;;;;19.90;15.83;;;;;;;8.40;63.21;98263.66;5057702;28;20548;-69
2021/04/18 08:23:10;;;;;;;19.03;16.30;;;;;;;8.30;63.67;98270.75;5061584;28;20911;-70
2021/04/18 08:25:39;;;;;;;15.77;14.07;;;;;;;7.62;66.64;98275.13;5060025;28;20297;-71
2021/04/18 08:28:09;;;;;;;16.20;14.70;;;;;;;8.04;65.63;98277.47;5054084;28;20200;-70
2021/04/18 08:31:02;;;;;;;19.87;16.83;;;;;;;7.49;65.48;98276.22;5066531;28;20241;-70
2021/04/18 08:33:46;;;;;;;16.80;15.10;;;;;;;7.71;65.55;98281.38;5062179;28;20297;-69
2021/04/18 08:36:16;;;;;;;16.83;15.00;;;;;;;7.87;65.43;98280.81;5060809;28;20207;-70
2021/04/18 08:38:45;;;;;;;16.37;14.67;;;;;;;8.40;62.88;98276.84;5059535;28;20544;-70
2021/04/18 08:41:17;;;;;;;15.47;13.77;;;;;;;8.45;63.07;98281.69;5062833;28;20223;-69
2021/04/18 08:43:45;;;;;;;14.83;13.43;;;;;;;8.39;63.45;98281.28;5061656;28;20215;-69
2021/04/18 08:46:12;;;;;;;14.43;13.10;;;;;;;8.67;63.34;98270.81;5061634;28;20449;-70
2021/04/18 08:48:40;;;;;;;16.03;14.27;;;;;;;8.49;61.77;98278.66;5058820;28;20556;-70
2021/04/18 08:51:10;;;;;;;16.83;14.00;;;;;;;8.26;62.28;98276.31;5060473;28;20646;-70
2021/04/18 08:53:54;;;;;;;16.40;14.77;;;;;;;7.69;64.19;98281.50;5057372;28;20266;-70
2021/04/18 08:56:22;;;;;;;14.90;13.50;;;;;;;8.03;63.48;98277.63;5058077;28;20206;-70
2021/04/18 08:58:49;;;;;;;14.40;13.03;;;;;;;8.17;63.31;98282.44;5058471;28;20246;-70
2021/04/18 09:01:18;;;;;;;14.90;13.47;;;;;;;8.44;62.42;98280.88;5060744;28;20226;-70
2021/04/18 09:03:58;;;;;;;15.40;12.87;;;;;;;8.16;62.76;98277.31;5060020;28;20593;-69
2021/04/18 09:06:33;;;;;;;13.27;12.07;;;;;;;8.02;63.13;98270.66;5057180;28;20202;-69
2021/04/18 09:09:02;;;;;;;14.20;12.80;;;;;;;7.77;63.99;98275.53;5060658;28;20209;-71
2021/04/18 09:11:36;;;;;;;14.37;12.97;;;;;;;7.84;64.46;98273.19;5057114;28;20315;-70
2021/04/18 09:14:04;;;;;;;13.70;12.40;;;;;;;7.70;64.58;98275.25;5061361;28;20210;-72
2021/04/18 09:16:32;;;;;;;16.00;13.47;;;;;;;7.38;65.62;98274.53;5058917;28;20207;-72
2021/04/18 09:19:19;;;;;;;14.50;13.03;;;;;;;7.36;65.67;98275.63;5055592;28;20694;-70
2021/04/18 09:21:59;;;;;;;14.60;12.93;;;;;;;7.49;65.42;98270.09;5058432;28;20230;-70
2021/04/18 09:24:28;;;;;;;13.83;12.53;;;;;;;7.80;64.38;98273.47;5058115;28;20489;-70
2021/04/18 09:26:59;;;;;;;13.97;12.57;;;;;;;7.65;64.81;98277.47;5059150;28;20659;-70
2021/04/18 09:29:27;;;;;;;13.23;11.97;;;;;;;7.62;65.03;98270.69;5059682;28;20237;-69
2021/04/18 09:32:00;;;;;;;12.23;11.07;;;;;;;7.51;64.06;98284.84;5056556;28;20222;-70
2021/04/18 09:34:27;;;;;;;14.47;12.63;;;;;;;7.65;63.61;98277.47;5058207;28;20235;-70
2021/04/18 09:36:56;;;;;;;13.20;11.90;;;;;;;8.06;62.50;98279.97;5059931;28;20209;-71
2021/04/18 09:39:26;;;;;;;15.03;11.70;;;;;;;8.24;62.29;98288.00;5059552;28;20223;-69
2021/04/18 09:41:53;;;;;;;13.20;11.90;;;;;;;8.33;61.63;98283.66;5058204;28;20586;-69
2021/04/18 09:44:30;;;;;;;12.87;11.27;;;;;;;8.36;62.31;98283.41;5056926;28;20207;-69
2021/04/18 09:47:00;;;;;;;12.73;11.53;;;;;;;8.61;62.51;98281.97;5052029;28;20199;-70
2021/04/18 09:49:28;;;;;;;10.43;9.47;;;;;;;8.86;59.74;98282.25;5057086;28;20207;-71
2021/04/18 09:52:00;;;;;;;12.00;10.80;;;;;;;9.08;58.86;98275.75;5055756;28;20452;-71
2021/04/18 09:54:32;;;;;;;12.23;11.03;;;;;;;8.78;60.66;98282.16;5056294;28;20464;-70
2021/04/18 09:57:20;;;;;;;11.97;10.87;;;;;;;8.45;60.24;98277.25;5060359;28;20277;-70
2021/04/18 10:00:10;;;;;;;13.20;11.47;;;;;;;8.37;60.99;98285.88;5056317;28;20598;-70
2021/04/18 10:02:37;;;;;;;12.80;11.33;;;;;;;8.46;60.86;98280.72;5056518;28;20205;-70
2021/04/18 10:05:13;;;;;;;11.50;10.40;;;;;;;9.02;60.84;98268.41;5058638;28;20203;-71
2021/04/18 10:07:41;;;;;;;10.10;9.10;;;;;;;9.08;59.52;98277.59;5060501;28;20222;-70
2021/04/18 10:10:11;;;;;;;11.17;10.17;;;;;;;9.06;58.32;98279.53;5061564;28;20223;-70
2021/04/18 10:12:49;;;;;;;10.73;9.67;;;;;;;9.14;58.16;98269.06;5054343;28;20207;-71
2021/04/18 10:15:19;;;;;;;11.00;9.90;;;;;;;9.22;59.25;98271.78;5059393;28;20206;-70
2021/04/18 10:17:46;;;;;;;11.17;9.83;;;;;;;9.34;58.79;98275.06;5060027;28;20223;-70
2021/04/18 10:20:24;;;;;;;12.00;10.80;;;;;;;9.31;57.54;98272.72;5059011;28;20223;-71
2021/04/18 10:23:02;;;;;;;11.90;10.70;;;;;;;9.32;58.66;98271.72;5058922;28;20202;-70
2021/04/18 10:25:30;;;;;;;12.33;11.23;;;;;;;9.34;57.33;98274.25;5058692;28;20689;-68
2021/04/18 10:27:57;;;;;;;12.07;10.87;;;;;;;9.09;59.23;98268.66;5057506;28;20209;-69
2021/04/18 10:30:25;;;;;;;11.33;10.33;;;;;;;9.18;59.15;98264.31;5062207;28;20333;-68
2021/04/18 10:32:52;;;;;;;11.40;10.30;;;;;;;8.74;60.57;98270.22;5062736;28;20305;-69
2021/04/18 10:35:20;;;;;;;12.50;11.30;;;;;;;8.67;60.85;98277.88;5060367;28;20399;-71
2021/04/18 10:37:49;;;;;;;11.90;10.70;;;;;;;8.92;59.48;98270.28;5059604;28;20571;-71
2021/04/18 10:40:16;;;;;;;12.20;11.00;;;;;;;8.56;60.70;98275.44;5056754;28;20306;-71
2021/04/18 10:42:43;;;;;;;12.07;10.97;;;;;;;8.64;61.14;98267.63;5058719;28;20204;-71
2021/04/18 10:45:12;;;;;;;12.27;10.97;;;;;;;8.60;62.01;98264.44;5057080;28;20713;-71
2021/04/18 10:47:40;;;;;;;13.13;11.83;;;;;;;8.71;61.11;98259.94;5062478;28;20206;-70
2021/04/18 10:50:09;;;;;;;12.07;10.93;;;;;;;8.91;60.15;98263.34;5059484;28;20242;-70
2021/04/18 10:52:36;;;;;;;12.43;11.23;;;;;;;8.86;60.97;98262.94;5059124;28;20221;-71
2021/04/18 10:55:04;;;;;;;12.90;11.60;;;;;;;8.88;61.04;98255.69;5060573;28;20199;-70
2021/04/18 10:57:31;;;;;;;13.97;12.00;;;;;;;9.11;60.15;98251.69;5061302;28;20195;-71
2021/04/18 10:59:58;;;;;;;12.30;11.00;;;;;;;9.16;60.29;98256.53;5055839;28;20554;-71
2021/04/18 11:02:25;;;;;;;17.90;14.77;;;;;;;9.00;59.29;98254.53;5056063;28;20210;-71
2021/04/18 11:04:53;;;;;;;16.73;13.80;;;;;;;9.11;60.07;98250.84;5059993;28;20210;-71
2021/04/18 11:07:21;;;;;;;14.73;13.13;;;;;;;9.38;59.50;98259.72;5059960;28;20217;-71
2021/04/18 11:09:48;;;;;;;13.07;11.87;;;;;;;9.44;58.80;98256.47;5060662;28;20400;-70
2021/04/18 11:12:17;;;;;;;12.10;11.00;;;;;;;9.68;58.32;98258.53;5060717;28;20203;-70
2021/04/18 11:14:44;;;;;;;13.43;11.90;;;;;;;9.91;56.46;98250.13;5059672;28;20802;-69
2021/04/18 11:17:12;;;;;;;12.00;10.63;;;;;;;9.78;57.38;98250.50;5059979;28;20298;-71
2021/04/18 11:19:39;;;;;;;13.70;12.33;;;;;;;9.87;57.82;98258.50;5062023;28;20226;-70
2021/04/18 11:22:08;;;;;;;13.33;12.03;;;;;;;9.95;57.69;98247.97;5060641;28;20203;-69
2021/04/18 11:24:35;;;;;;;13.13;11.80;;;;;;;10.01;58.26;98252.66;5060408;28;20453;-71
2021/04/18 11:27:03;;;;;;;15.57;14.00;;;;;;;10.18;56.83;98253.59;5060103;28;20590;-69
2021/04/18 11:29:30;;;;;;;14.63;13.17;;;;;;;10.24;55.93;98253.00;5062645;28;20655;-68
2021/04/18 11:31:57;;;;;;;13.90;12.67;;;;;;;9.49;58.44;98254.22;5061233;28;21102;-67
2021/04/18 11:34:25;;;;;;;14.57;12.70;;;;;;;9.52;60.39;98261.84;5060979;28;20206;-71
2021/04/18 11:36:52;;;;;;;14.73;13.17;;;;;;;9.92;57.80;98251.78;5061058;28;20667;-71
2021/04/18 11:39:20;;;;;;;14.27;12.77;;;;;;;9.95;57.79;98254.13;5058066;28;20709;-70